Time;durP1;ratioP1;P1;durP2;ratioP2;P2;SDS_P1;SDS_P2;PMS_P1;PMS_P2;Temp;Humidity;BMP_temperature;BMP_pressure;BME280_temperature;BME280_humidity;BME280_pressure;Samples;Min_cycle;Max_cycle;Signal;HPM_P1;HPM_P2
2022/06/20 00:01:22;;;;;;;5.70;2.80;;;;;;;;;;3347968;42;20536;-63
2022/06/20 00:03:49;;;;;;;5.88;2.17;;;;;;;;;;3339967;42;20496;-58
2022/06/20 00:06:16;;;;;;;7.45;2.50;;;;;;;;;;3343362;42;20088;-58
2022/06/20 00:08:42;;;;;;;5.90;2.60;;;;;;;;;;3347364;42;20081;-58
2022/06/20 00:11:16;;;;;;;5.57;2.33;;;;;;;;;;3344370;42;20088;-59
2022/06/20 00:13:44;;;;;;;5.57;2.67;;;;;;;;;;3348185;42;20132;-57
2022/06/20 00:16:12;;;;;;;7.07;2.42;;;;;;;;;;3337194;42;20103;-57
2022/06/20 00:18:38;;;;;;;6.43;2.75;;;;;;;;;;3342592;42;20629;-58
2022/06/20 00:21:04;;;;;;;6.27;2.70;;;;;;;;;;3340129;42;20193;-59
2022/06/20 00:23:30;;;;;;;6.63;2.72;;;;;;;;;;3346075;42;20564;-59
2022/06/20 00:25:56;;;;;;;5.40;2.60;;;;;;;;;;3346736;42;20089;-58
2022/06/20 00:28:22;;;;;;;5.82;2.60;;;;;;;;;;3342612;42;20468;-58
2022/06/20 00:30:48;;;;;;;6.37;2.60;;;;;;;;;;3345571;42;20679;-56
2022/06/20 00:33:14;;;;;;;8.25;2.80;;;;;;;;;;3344779;42;20112;-57
2022/06/20 00:35:39;;;;;;;5.85;2.60;;;;;;;;;;3342767;42;20115;-61
2022/06/20 00:38:06;;;;;;;7.38;2.50;;;;;;;;;;3345295;42;20156;-58
2022/06/20 00:40:37;;;;;;;6.57;2.60;;;;;;;;;;3339587;42;20557;-57
2022/06/20 00:43:04;;;;;;;6.47;2.80;;;;;;;;;;3345943;42;20484;-56
2022/06/20 00:45:31;;;;;;;5.65;2.60;;;;;;;;;;3346091;42;20088;-58
2022/06/20 00:48:05;;;;;;;5.97;2.80;;;;;;;;;;3344102;42;20151;-58
2022/06/20 00:50:32;;;;;;;11.93;3.70;;;;;;;;;;3341502;42;20100;-58
2022/06/20 00:53:19;;;;;;;7.27;2.70;;;;;;;;;;3345851;42;20834;-58
2022/06/20 00:55:59;;;;;;;6.78;2.78;;;;;;;;;;3344609;42;20140;-58
2022/06/20 00:58:31;;;;;;;6.32;2.80;;;;;;;;;;3348290;42;20216;-59
2022/06/20 01:00:57;;;;;;;6.20;2.55;;;;;;;;;;3340828;42;20089;-59
2022/06/20 01:03:26;;;;;;;6.47;2.45;;;;;;;;;;3346619;42;20107;-59
2022/06/20 01:06:08;;;;;;;5.90;2.87;;;;;;;;;;3345240;42;20088;-59
2022/06/20 01:08:45;;;;;;;6.10;2.47;;;;;;;;;;3343907;42;20654;-59
2022/06/20 01:11:16;;;;;;;7.72;2.90;;;;;;;;;;3336686;42;20503;-58
2022/06/20 01:13:43;;;;;;;6.30;2.58;;;;;;;;;;3344100;42;20546;-58
2022/06/20 01:16:15;;;;;;;6.95;2.70;;;;;;;;;;3346118;42;20093;-57
2022/06/20 01:18:42;;;;;;;6.17;2.60;;;;;;;;;;3346877;42;20097;-59
2022/06/20 01:21:20;;;;;;;8.90;2.67;;;;;;;;;;3347611;42;20156;-57
2022/06/20 01:24:08;;;;;;;6.75;2.47;;;;;;;;;;3345854;42;20153;-58
2022/06/20 01:26:55;;;;;;;6.55;2.65;;;;;;;;;;3335478;42;20135;-59
2022/06/20 01:29:21;;;;;;;6.55;2.65;;;;;;;;;;3349162;42;20081;-58
2022/06/20 01:31:53;;;;;;;7.77;2.43;;;;;;;;;;3333869;42;20121;-59
2022/06/20 01:34:19;;;;;;;5.90;2.70;;;;;;;;;;3341035;42;20168;-59
2022/06/20 01:39:34;;;;;;;5.65;2.53;;;;;;;;;;3343640;42;20085;-58
2022/06/20 01:42:32;;;;;;;6.60;2.58;;;;;;;;;;3341625;42;20091;-59
2022/06/20 01:45:57;;;;;;;6.23;2.57;;;;;;;;;;3350113;42;20096;-58
2022/06/20 01:47:53;;;;;;;5.45;2.33;;;;;;;;;;3342926;42;20111;-56
2022/06/20 01:50:19;;;;;;;6.78;2.47;;;;;;;;;;3341973;42;20093;-57
2022/06/20 01:52:45;;;;;;;6.45;2.50;;;;;;;;;;3340886;42;20107;-57
2022/06/20 01:55:14;;;;;;;6.57;2.60;;;;;;;;;;3341082;42;20576;-58
2022/06/20 01:57:41;;;;;;;6.53;2.33;;;;;;;;;;3344484;42;20123;-59
2022/06/20 02:00:13;;;;;;;5.93;2.50;;;;;;;;;;3345229;42;20143;-58
2022/06/20 02:02:49;;;;;;;7.03;2.75;;;;;;;;;;3344363;42;20089;-58
2022/06/20 02:05:17;;;;;;;6.03;2.75;;;;;;;;;;3337099;42;20089;-57
2022/06/20 02:07:43;;;;;;;6.25;2.40;;;;;;;;;;3339673;42;20089;-58
2022/06/20 02:10:10;;;;;;;5.87;2.60;;;;;;;;;;3346536;42;20120;-58
2022/06/20 02:12:37;;;;;;;5.85;2.67;;;;;;;;;;3339363;42;20160;-59
2022/06/20 02:15:04;;;;;;;6.90;2.78;;;;;;;;;;3343723;42;20088;-58
2022/06/20 02:17:32;;;;;;;6.07;2.58;;;;;;;;;;3334131;42;20100;-59
2022/06/20 02:19:59;;;;;;;6.13;2.57;;;;;;;;;;3334656;42;20115;-58
2022/06/20 02:22:25;;;;;;;6.18;2.58;;;;;;;;;;3347147;42;20103;-56
2022/06/20 02:25:01;;;;;;;6.30;2.47;;;;;;;;;;3343792;42;20089;-58
2022/06/20 02:27:30;;;;;;;5.80;2.60;;;;;;;;;;3334783;42;20093;-57
2022/06/20 02:29:57;;;;;;;6.57;2.55;;;;;;;;;;3343820;42;20187;-55
2022/06/20 02:32:27;;;;;;;5.60;2.30;;;;;;;;;;3345942;42;20101;-57
2022/06/20 02:34:53;;;;;;;5.25;2.40;;;;;;;;;;3342949;42;20095;-58
2022/06/20 02:37:24;;;;;;;7.93;2.40;;;;;;;;;;3340718;42;20498;-58
2022/06/20 02:39:52;;;;;;;6.43;2.40;;;;;;;;;;3341532;42;20567;-58
2022/06/20 02:42:44;;;;;;;7.03;2.60;;;;;;;;;;3340115;42;20093;-58
2022/06/20 02:45:11;;;;;;;7.30;2.28;;;;;;;;;;3344408;42;20099;-58
2022/06/20 02:47:42;;;;;;;5.68;2.53;;;;;;;;;;3354534;42;20108;-58
2022/06/20 02:50:08;;;;;;;6.25;2.47;;;;;;;;;;3350424;42;20100;-58
2022/06/20 02:52:42;;;;;;;10.95;2.70;;;;;;;;;;3332354;42;20095;-58
2022/06/20 02:55:08;;;;;;;6.60;2.63;;;;;;;;;;3350233;42;20089;-57
2022/06/20 02:57:35;;;;;;;5.82;2.63;;;;;;;;;;3339629;42;20660;-57
2022/06/20 03:00:03;;;;;;;6.55;2.72;;;;;;;;;;3345206;42;20155;-57
2022/06/20 03:02:31;;;;;;;6.43;2.70;;;;;;;;;;3331338;42;20168;-58
2022/06/20 03:04:57;;;;;;;7.50;2.78;;;;;;;;;;3342886;42;20174;-56
2022/06/20 03:07:25;;;;;;;6.33;2.50;;;;;;;;;;3344857;42;20101;-55
2022/06/20 03:10:02;;;;;;;6.78;2.50;;;;;;;;;;3347117;42;20113;-58
2022/06/20 03:12:28;;;;;;;6.95;2.80;;;;;;;;;;3340411;42;20149;-58
2022/06/20 03:14:57;;;;;;;6.65;2.38;;;;;;;;;;3344850;42;20620;-57
2022/06/20 03:17:23;;;;;;;6.78;2.40;;;;;;;;;;3341215;42;20148;-57
2022/06/20 03:19:51;;;;;;;6.33;2.50;;;;;;;;;;3340552;42;20180;-60
2022/06/20 03:22:20;;;;;;;5.75;2.33;;;;;;;;;;3343890;42;20506;-57
2022/06/20 03:24:46;;;;;;;8.10;2.75;;;;;;;;;;3341821;42;20527;-58
2022/06/20 03:27:19;;;;;;;7.25;2.90;;;;;;;;;;3336588;42;20552;-58
2022/06/20 03:29:45;;;;;;;6.03;2.47;;;;;;;;;;3336634;42;20093;-57
2022/06/20 03:32:11;;;;;;;6.43;2.43;;;;;;;;;;3331818;42;20095;-57
2022/06/20 03:34:37;;;;;;;5.63;2.72;;;;;;;;;;3346435;42;20162;-57
2022/06/20 03:37:06;;;;;;;6.13;2.65;;;;;;;;;;3348142;42;20594;-56
2022/06/20 03:39:33;;;;;;;6.65;2.67;;;;;;;;;;3334856;42;20162;-57
2022/06/20 03:41:59;;;;;;;7.33;2.80;;;;;;;;;;3340927;42;20646;-58
2022/06/20 03:44:31;;;;;;;7.15;2.50;;;;;;;;;;3341725;42;20092;-58
2022/06/20 03:47:13;;;;;;;6.82;2.80;;;;;;;;;;3342765;42;20097;-59
2022/06/20 03:49:53;;;;;;;7.45;2.75;;;;;;;;;;3336347;42;20121;-58
2022/06/20 03:52:24;;;;;;;7.88;2.80;;;;;;;;;;3347135;42;20120;-58
2022/06/20 03:54:52;;;;;;;7.57;2.70;;;;;;;;;;3342501;42;20191;-60
2022/06/20 03:57:25;;;;;;;5.95;2.60;;;;;;;;;;3345563;42;20093;-58
2022/06/20 03:59:56;;;;;;;7.50;2.75;;;;;;;;;;3345808;42;20097;-57
2022/06/20 04:02:27;;;;;;;6.28;2.50;;;;;;;;;;3344710;42;20171;-58
2022/06/20 04:04:58;;;;;;;9.18;3.17;;;;;;;;;;3342439;42;20540;-58
2022/06/20 04:07:45;;;;;;;6.20;2.70;;;;;;;;;;3347054;42;20164;-59
2022/06/20 04:13:18;;;;;;;7.57;2.80;;;;;;;;;;3337693;42;20131;-58
2022/06/20 04:15:49;;;;;;;6.50;2.92;;;;;;;;;;3346612;42;20155;-58
2022/06/20 04:18:36;;;;;;;5.72;2.83;;;;;;;;;;3353863;42;20129;-57
2022/06/20 04:21:25;;;;;;;6.90;2.80;;;;;;;;;;3347119;42;20356;-56
2022/06/20 04:24:49;;;;;;;8.35;3.10;;;;;;;;;;3343449;42;20101;-58
2022/06/20 04:27:15;;;;;;;8.27;2.75;;;;;;;;;;3330521;42;20207;-59
2022/06/20 04:29:51;;;;;;;7.90;2.92;;;;;;;;;;3330425;42;20104;-57
2022/06/20 04:32:38;;;;;;;10.03;3.10;;;;;;;;;;3331323;42;20555;-57
2022/06/20 04:35:15;;;;;;;7.10;3.08;;;;;;;;;;3341460;42;20093;-59
2022/06/20 04:37:53;;;;;;;6.07;3.05;;;;;;;;;;3348294;42;20223;-59
2022/06/20 04:40:28;;;;;;;8.10;2.90;;;;;;;;;;3346119;42;20621;-58
2022/06/20 04:43:08;;;;;;;5.97;3.17;;;;;;;;;;3338724;42;20183;-57
2022/06/20 04:45:44;;;;;;;6.57;2.97;;;;;;;;;;3345962;42;20080;-60
2022/06/20 04:48:20;;;;;;;8.18;2.78;;;;;;;;;;3340843;42;20627;-58
2022/06/20 04:50:58;;;;;;;11.90;3.22;;;;;;;;;;3345539;42;20081;-58
2022/06/20 04:53:25;;;;;;;6.70;2.83;;;;;;;;;;3341127;42;20160;-58
2022/06/20 04:55:53;;;;;;;7.80;3.30;;;;;;;;;;3336755;42;20081;-58
2022/06/20 04:58:27;;;;;;;8.70;3.00;;;;;;;;;;3347538;42;20097;-58
2022/06/20 05:00:53;;;;;;;7.53;3.10;;;;;;;;;;3344435;42;20093;-55
2022/06/20 05:03:25;;;;;;;8.45;3.58;;;;;;;;;;3341522;42;20149;-60
2022/06/20 05:05:52;;;;;;;11.02;3.30;;;;;;;;;;3342597;42;20145;-59
2022/06/20 05:08:25;;;;;;;6.70;3.38;;;;;;;;;;3339797;42;20081;-57
2022/06/20 05:11:37;;;;;;;8.63;3.67;;;;;;;;;;3342483;42;20103;-56
2022/06/20 05:14:12;;;;;;;9.50;3.90;;;;;;;;;;3343613;42;20132;-59
2022/06/20 05:16:42;;;;;;;8.57;3.42;;;;;;;;;;3341614;42;20599;-58
2022/06/20 05:19:12;;;;;;;7.72;3.50;;;;;;;;;;3343493;42;20101;-57
2022/06/20 05:21:40;;;;;;;7.63;3.90;;;;;;;;;;3332646;42;20161;-58
2022/06/20 05:24:13;;;;;;;7.93;3.60;;;;;;;;;;3347257;42;20140;-57
2022/06/20 05:26:41;;;;;;;11.65;3.90;;;;;;;;;;3336961;42;20090;-58
2022/06/20 05:29:09;;;;;;;8.02;3.65;;;;;;;;;;3332546;42;20202;-57
2022/06/20 05:31:44;;;;;;;7.47;3.35;;;;;;;;;;3332369;42;20103;-57
2022/06/20 05:34:10;;;;;;;7.95;3.63;;;;;;;;;;3340916;42;20171;-59
2022/06/20 05:36:49;;;;;;;12.57;3.73;;;;;;;;;;3347768;42;20093;-58
2022/06/20 05:39:39;;;;;;;8.60;3.85;;;;;;;;;;3337790;42;20093;-58
2022/06/20 05:42:05;;;;;;;7.32;3.50;;;;;;;;;;3344533;42;20101;-59
2022/06/20 05:44:31;;;;;;;9.07;3.90;;;;;;;;;;3345972;42;20104;-59
2022/06/20 05:47:00;;;;;;;8.95;4.28;;;;;;;;;;3344145;42;20101;-59
2022/06/20 05:49:30;;;;;;;9.43;3.93;;;;;;;;;;3342175;42;20582;-56
2022/06/20 05:51:56;;;;;;;7.68;4.03;;;;;;;;;;3335072;42;20553;-62
2022/06/20 05:54:35;;;;;;;7.82;3.88;;;;;;;;;;3339955;42;20576;-58
2022/06/20 05:57:04;;;;;;;8.38;3.67;;;;;;;;;;3334369;42;20081;-59
2022/06/20 05:59:57;;;;;;;7.57;3.67;;;;;;;;;;3342695;42;20092;-59
2022/06/20 06:02:28;;;;;;;7.40;3.80;;;;;;;;;;3337755;42;20104;-57
2022/06/20 06:05:16;;;;;;;7.63;4.00;;;;;;;;;;3345232;42;20094;-59
2022/06/20 06:07:50;;;;;;;8.98;3.88;;;;;;;;;;3342689;42;20100;-59
2022/06/20 06:10:33;;;;;;;7.10;3.80;;;;;;;;;;3343455;42;20168;-57
2022/06/20 06:13:38;;;;;;;8.63;4.03;;;;;;;;;;3345059;42;20156;-58
2022/06/20 06:19:14;;;;;;;7.80;3.90;;;;;;;;;;3343446;42;20088;-59
2022/06/20 06:21:41;;;;;;;6.97;3.75;;;;;;;;;;3343435;42;20656;-59
2022/06/20 06:24:09;;;;;;;9.15;3.80;;;;;;;;;;3345806;42;20638;-59
2022/06/20 06:26:35;;;;;;;10.43;4.57;;;;;;;;;;3342345;42;20555;-58
2022/06/20 06:29:01;;;;;;;8.43;4.10;;;;;;;;;;3344437;42;20149;-60
2022/06/20 06:31:40;;;;;;;8.00;3.97;;;;;;;;;;3347039;42;20081;-56
2022/06/20 06:34:11;;;;;;;9.50;4.28;;;;;;;;;;3338525;42;20155;-58
2022/06/20 06:36:48;;;;;;;10.27;4.60;;;;;;;;;;3343729;42;20510;-58
2022/06/20 06:39:20;;;;;;;10.13;4.25;;;;;;;;;;3339782;42;20125;-57
2022/06/20 06:41:47;;;;;;;11.10;4.50;;;;;;;;;;3344337;42;20100;-56
2022/06/20 06:44:29;;;;;;;10.20;4.38;;;;;;;;;;3344251;42;20564;-58
2022/06/20 06:46:55;;;;;;;10.27;4.10;;;;;;;;;;3343720;42;20085;-58
2022/06/20 06:49:25;;;;;;;8.82;4.40;;;;;;;;;;3335930;42;20578;-57
2022/06/20 06:51:57;;;;;;;10.77;4.00;;;;;;;;;;3342093;42;20092;-57
2022/06/20 06:54:27;;;;;;;8.45;4.25;;;;;;;;;;3340380;42;20136;-58
2022/06/20 06:57:03;;;;;;;7.70;4.43;;;;;;;;;;3337238;42;20097;-57
2022/06/20 06:59:52;;;;;;;11.23;4.28;;;;;;;;;;3340931;42;20589;-57
2022/06/20 07:02:22;;;;;;;7.97;4.40;;;;;;;;;;3347582;42;20167;-58
2022/06/20 07:05:00;;;;;;;10.43;4.07;;;;;;;;;;3343736;42;20089;-58
2022/06/20 07:07:30;;;;;;;9.65;4.38;;;;;;;;;;3333010;42;20095;-58
2022/06/20 07:09:56;;;;;;;8.88;4.43;;;;;;;;;;3346625;42;20144;-58
2022/06/20 07:12:30;;;;;;;8.73;4.20;;;;;;;;;;3344874;42;20089;-58
2022/06/20 07:15:23;;;;;;;8.05;4.18;;;;;;;;;;3344531;42;20145;-58
2022/06/20 07:17:59;;;;;;;7.20;4.00;;;;;;;;;;3343956;42;20101;-58
2022/06/20 07:20:35;;;;;;;12.45;4.50;;;;;;;;;;3344558;42;20647;-57
2022/06/20 07:23:03;;;;;;;8.15;4.28;;;;;;;;;;3338657;42;20140;-59
2022/06/20 07:25:35;;;;;;;8.60;4.53;;;;;;;;;;3345260;42;20167;-58
2022/06/20 07:28:06;;;;;;;8.57;4.45;;;;;;;;;;3347313;42;20585;-57
2022/06/20 07:30:39;;;;;;;7.87;3.87;;;;;;;;;;3341182;42;20131;-58
2022/06/20 07:33:30;;;;;;;9.15;4.32;;;;;;;;;;3341219;42;20104;-59
2022/06/20 07:35:57;;;;;;;13.27;4.50;;;;;;;;;;3344662;42;20144;-56
2022/06/20 07:38:38;;;;;;;9.75;4.20;;;;;;;;;;3335511;42;20107;-59
2022/06/20 07:41:26;;;;;;;7.95;4.15;;;;;;;;;;3338509;42;20156;-55
2022/06/20 07:43:58;;;;;;;9.00;4.10;;;;;;;;;;3342607;42;20679;-58
2022/06/20 07:46:37;;;;;;;6.88;3.90;;;;;;;;;;3347163;42;20107;-58
2022/06/20 07:49:06;;;;;;;7.47;4.13;;;;;;;;;;3335659;42;20545;-58
2022/06/20 07:51:34;;;;;;;9.80;3.85;;;;;;;;;;3347245;42;20104;-58
2022/06/20 07:54:10;;;;;;;8.60;3.78;;;;;;;;;;3340323;42;20164;-56
2022/06/20 07:56:41;;;;;;;7.77;3.70;;;;;;;;;;3343235;42;20097;-55
2022/06/20 07:59:13;;;;;;;8.25;3.40;;;;;;;;;;3340980;42;20582;-59
2022/06/20 08:01:49;;;;;;;8.32;3.40;;;;;;;;;;3342320;42;20081;-59
2022/06/20 08:04:15;;;;;;;9.65;3.75;;;;;;;;;;3333825;42;20096;-59
2022/06/20 08:07:20;;;;;;;6.78;3.60;;;;;;;;;;3337578;42;20140;-59
2022/06/20 08:09:54;;;;;;;6.77;3.40;;;;;;;;;;3343033;42;20148;-59
2022/06/20 08:12:41;;;;;;;8.63;3.90;;;;;;;;;;3340814;42;20092;-58
2022/06/20 08:15:14;;;;;;;9.00;3.80;;;;;;;;;;3343300;42;20096;-58
2022/06/20 08:17:40;;;;;;;9.32;3.75;;;;;;;;;;3336189;42;20112;-57
2022/06/20 08:20:07;;;;;;;9.10;3.67;;;;;;;;;;3345930;42;20099;-57
2022/06/20 08:23:01;;;;;;;8.10;3.57;;;;;;;;;;3338983;42;20163;-56
2022/06/20 08:25:42;;;;;;;7.55;3.80;;;;;;;;;;3337433;42;20168;-58
2022/06/20 08:28:15;;;;;;;8.15;3.63;;;;;;;;;;3336909;42;20187;-56
2022/06/20 08:30:44;;;;;;;8.93;3.92;;;;;;;;;;3337111;42;20089;-58
2022/06/20 08:33:50;;;;;;;9.07;3.92;;;;;;;;;;3339046;42;20576;-58
2022/06/20 08:36:23;;;;;;;9.70;3.70;;;;;;;;;;3343365;42;20093;-58
2022/06/20 08:38:55;;;;;;;7.45;3.60;;;;;;;;;;3344860;42;20164;-58
2022/06/20 08:42:08;;;;;;;8.23;3.78;;;;;;;;;;3346999;42;20934;-57
2022/06/20 08:44:55;;;;;;;10.77;4.10;;;;;;;;;;3328877;42;20165;-57
2022/06/20 08:47:38;;;;;;;9.95;4.30;;;;;;;;;;3340072;42;20157;-58
2022/06/20 08:50:18;;;;;;;9.67;4.60;;;;;;;;;;3344031;42;20084;-60
2022/06/20 08:53:13;;;;;;;13.30;4.72;;;;;;;;;;3336841;42;20131;-55
2022/06/20 08:55:51;;;;;;;11.88;4.18;;;;;;;;;;3340145;42;20595;-59
2022/06/20 08:58:52;;;;;;;10.52;4.07;;;;;;;;;;3347428;42;20496;-57
2022/06/20 09:01:42;;;;;;;8.07;4.47;;;;;;;;;;3345505;42;20511;-60
2022/06/20 09:04:26;;;;;;;7.77;4.00;;;;;;;;;;3346182;42;20116;-59
2022/06/20 09:07:07;;;;;;;8.63;4.45;;;;;;;;;;3346437;42;20458;-58
2022/06/20 09:09:36;;;;;;;11.23;4.20;;;;;;;;;;3341997;42;20573;-59
2022/06/20 09:12:08;;;;;;;9.38;4.50;;;;;;;;;;3347038;42;20093;-58
2022/06/20 09:14:49;;;;;;;9.27;4.35;;;;;;;;;;3345763;42;20152;-58
2022/06/20 09:17:32;;;;;;;8.07;4.40;;;;;;;;;;3346713;42;20096;-57
2022/06/20 09:20:12;;;;;;;10.48;4.00;;;;;;;;;;3345538;42;20081;-57
2022/06/20 09:23:01;;;;;;;9.07;4.53;;;;;;;;;;3343494;42;20235;-58
2022/06/20 09:25:49;;;;;;;8.65;4.22;;;;;;;;;;3341905;42;20128;-59
2022/06/20 09:28:24;;;;;;;12.85;4.20;;;;;;;;;;3336899;42;20085;-59
2022/06/20 09:30:53;;;;;;;10.47;4.40;;;;;;;;;;3347403;42;20105;-58
2022/06/20 09:33:27;;;;;;;10.88;4.18;;;;;;;;;;3348646;42;20101;-59
2022/06/20 09:36:02;;;;;;;8.90;3.80;;;;;;;;;;3346978;42;20576;-58
2022/06/20 09:38:46;;;;;;;10.43;4.25;;;;;;;;;;3341734;42;20582;-58
2022/06/20 09:41:20;;;;;;;7.90;4.03;;;;;;;;;;3348517;42;20091;-57
2022/06/20 09:44:02;;;;;;;10.57;4.40;;;;;;;;;;3345275;42;20598;-59
2022/06/20 09:46:50;;;;;;;9.15;4.50;;;;;;;;;;3342204;42;20156;-58
2022/06/20 09:49:23;;;;;;;10.60;4.57;;;;;;;;;;3346622;42;20185;-59
2022/06/20 09:52:04;;;;;;;9.40;4.47;;;;;;;;;;3343778;42;20097;-59
2022/06/20 09:54:42;;;;;;;9.13;4.18;;;;;;;;;;3337969;42;20272;-58
2022/06/20 09:57:36;;;;;;;13.23;4.13;;;;;;;;;;3346570;42;20598;-58
2022/06/20 10:00:20;;;;;;;10.13;4.10;;;;;;;;;;3341289;42;20144;-59
2022/06/20 10:03:05;;;;;;;9.80;4.03;;;;;;;;;;3336187;42;20128;-59
2022/06/20 10:05:37;;;;;;;9.35;3.95;;;;;;;;;;3344405;42;20088;-58
2022/06/20 10:08:27;;;;;;;7.05;3.97;;;;;;;;;;3343945;42;20151;-59
2022/06/20 10:11:10;;;;;;;9.60;4.10;;;;;;;;;;3345245;42;20824;-58
2022/06/20 10:13:57;;;;;;;7.35;4.18;;;;;;;;;;3342137;42;20132;-58
2022/06/20 10:16:35;;;;;;;8.60;4.05;;;;;;;;;;3344107;42;20142;-57
2022/06/20 10:19:26;;;;;;;7.82;3.85;;;;;;;;;;3347928;42;20148;-58
2022/06/20 10:22:23;;;;;;;9.52;4.20;;;;;;;;;;3344211;42;20085;-59
2022/06/20 10:24:56;;;;;;;7.97;3.90;;;;;;;;;;3341024;42;20098;-60
2022/06/20 10:28:06;;;;;;;8.13;4.00;;;;;;;;;;3345586;42;20109;-59
2022/06/20 10:31:20;;;;;;;10.10;4.00;;;;;;;;;;3331919;42;20081;-57
2022/06/20 10:34:10;;;;;;;9.30;4.10;;;;;;;;;;3322818;42;20507;-59
2022/06/20 10:36:50;;;;;;;9.57;4.15;;;;;;;;;;3345739;42;20100;-59
2022/06/20 10:39:19;;;;;;;11.00;4.00;;;;;;;;;;3343250;42;20104;-59
2022/06/20 10:42:02;;;;;;;8.80;4.00;;;;;;;;;;3343714;42;20088;-59
2022/06/20 10:44:35;;;;;;;6.47;3.58;;;;;;;;;;3346491;42;20179;-57
2022/06/20 10:47:18;;;;;;;8.68;3.92;;;;;;;;;;3342817;42;20141;-64
2022/06/20 10:50:08;;;;;;;8.35;3.65;;;;;;;;;;3341030;42;20101;-57
2022/06/20 10:53:01;;;;;;;9.40;4.07;;;;;;;;;;3340983;42;20107;-59
2022/06/20 10:56:06;;;;;;;8.23;3.70;;;;;;;;;;3340307;42;20140;-58
2022/06/20 10:58:56;;;;;;;8.52;3.90;;;;;;;;;;3336860;42;20136;-58
2022/06/20 11:01:27;;;;;;;9.13;3.90;;;;;;;;;;3343310;42;20140;-58
2022/06/20 11:04:33;;;;;;;8.75;3.72;;;;;;;;;;3344469;42;20084;-59
2022/06/20 11:07:14;;;;;;;8.30;4.00;;;;;;;;;;3338191;42;20580;-58
2022/06/20 11:09:40;;;;;;;7.10;3.63;;;;;;;;;;3351491;42;20119;-59
2022/06/20 11:12:35;;;;;;;8.20;3.78;;;;;;;;;;3344069;42;20094;-60
2022/06/20 11:15:16;;;;;;;8.60;4.00;;;;;;;;;;3346414;42;20735;-58
2022/06/20 11:17:58;;;;;;;7.72;3.95;;;;;;;;;;3346351;42;20109;-58
2022/06/20 11:20:53;;;;;;;9.60;3.93;;;;;;;;;;3334366;42;20080;-58
2022/06/20 11:23:41;;;;;;;9.35;3.92;;;;;;;;;;3344679;42;20144;-58
2022/06/20 11:26:18;;;;;;;9.13;4.05;;;;;;;;;;3340236;42;20555;-58
2022/06/20 11:28:57;;;;;;;9.75;3.90;;;;;;;;;;3343644;42;20085;-57
2022/06/20 11:31:42;;;;;;;8.85;4.00;;;;;;;;;;3345391;42;20089;-59
2022/06/20 11:34:34;;;;;;;6.70;3.50;;;;;;;;;;3343043;42;20189;-58
2022/06/20 11:37:13;;;;;;;10.73;4.10;;;;;;;;;;3340959;42;20089;-56
2022/06/20 11:39:43;;;;;;;7.43;3.65;;;;;;;;;;3338835;42;20088;-58
2022/06/20 11:42:45;;;;;;;10.05;4.30;;;;;;;;;;3340817;42;20144;-58
2022/06/20 11:45:17;;;;;;;7.85;4.03;;;;;;;;;;3336264;42;20253;-57
2022/06/20 11:48:02;;;;;;;10.60;4.10;;;;;;;;;;3346359;42;20539;-58
2022/06/20 11:50:34;;;;;;;9.30;4.15;;;;;;;;;;3345267;42;20132;-57
2022/06/20 11:53:22;;;;;;;10.55;4.20;;;;;;;;;;3347258;42;20175;-59
2022/06/20 11:56:13;;;;;;;10.65;4.20;;;;;;;;;;3343832;42;20151;-59
2022/06/20 11:58:51;;;;;;;10.10;3.92;;;;;;;;;;3339858;42;20499;-59
2022/06/20 12:01:44;;;;;;;7.60;3.97;;;;;;;;;;3343085;42;20503;-58
2022/06/20 12:04:15;;;;;;;8.00;3.97;;;;;;;;;;3325179;42;20124;-59
2022/06/20 12:06:52;;;;;;;8.25;3.97;;;;;;;;;;3343438;42;20097;-59
2022/06/20 12:09:34;;;;;;;8.05;3.90;;;;;;;;;;3348386;42;20085;-57
2022/06/20 12:12:19;;;;;;;8.18;3.58;;;;;;;;;;3334581;42;20097;-57
2022/06/20 12:14:59;;;;;;;6.97;3.53;;;;;;;;;;3344849;42;20140;-60
2022/06/20 12:17:43;;;;;;;7.60;3.70;;;;;;;;;;3344448;42;20132;-59
2022/06/20 12:23:29;;;;;;;6.53;3.33;;;;;;;;;;3347322;42;20097;-58
2022/06/20 12:26:07;;;;;;;8.50;3.45;;;;;;;;;;3337314;42;20093;-59
2022/06/20 12:28:35;;;;;;;8.53;3.43;;;;;;;;;;3339984;42;20168;-58
2022/06/20 12:31:18;;;;;;;7.10;3.15;;;;;;;;;;3344238;42;20101;-58
2022/06/20 12:33:51;;;;;;;7.03;2.60;;;;;;;;;;3345581;42;20507;-58
2022/06/20 12:36:26;;;;;;;6.22;2.40;;;;;;;;;;3333331;42;20548;-59
2022/06/20 12:39:12;;;;;;;6.75;2.60;;;;;;;;;;3344704;42;20089;-59
2022/06/20 12:41:41;;;;;;;6.20;2.67;;;;;;;;;;3347056;42;20139;-56
2022/06/20 12:44:22;;;;;;;7.22;2.78;;;;;;;;;;3335939;42;20136;-58
2022/06/20 12:46:57;;;;;;;6.72;2.80;;;;;;;;;;3346126;42;20105;-59
2022/06/20 12:49:47;;;;;;;8.82;3.00;;;;;;;;;;3344319;42;20571;-59
2022/06/20 12:52:26;;;;;;;8.30;3.15;;;;;;;;;;3333373;42;20081;-58
2022/06/20 12:55:13;;;;;;;7.50;3.23;;;;;;;;;;3339942;42;20107;-59
2022/06/20 12:58:38;;;;;;;8.60;3.78;;;;;;;;;;3347202;42;20591;-58
2022/06/20 13:01:14;;;;;;;9.35;4.72;;;;;;;;;;3320957;42;20733;-59
2022/06/20 13:03:49;;;;;;;9.65;4.35;;;;;;;;;;3350122;42;20113;-59
2022/06/20 13:06:45;;;;;;;8.85;4.93;;;;;;;;;;3346071;42;20121;-59
2022/06/20 13:09:36;;;;;;;8.83;4.90;;;;;;;;;;3348768;42;20211;-58
2022/06/20 13:12:21;;;;;;;10.45;5.22;;;;;;;;;;3345532;42;20120;-59
2022/06/20 13:15:08;;;;;;;8.82;4.63;;;;;;;;;;3345753;42;20468;-59
2022/06/20 13:18:07;;;;;;;8.35;4.85;;;;;;;;;;3346143;42;20575;-58
2022/06/20 13:21:02;;;;;;;10.00;5.10;;;;;;;;;;3326281;42;20104;-59
2022/06/20 13:23:46;;;;;;;9.23;5.30;;;;;;;;;;3345371;42;20558;-57
2022/06/20 13:26:28;;;;;;;8.90;4.68;;;;;;;;;;3345085;42;20101;-55
2022/06/20 13:29:15;;;;;;;10.05;5.10;;;;;;;;;;3339644;42;20137;-58
2022/06/20 13:31:54;;;;;;;10.32;4.93;;;;;;;;;;3344824;42;20101;-59
2022/06/20 13:34:43;;;;;;;10.48;5.13;;;;;;;;;;3336685;42;20089;-59
2022/06/20 13:37:41;;;;;;;9.27;4.70;;;;;;;;;;3336293;42;20097;-59
2022/06/20 13:40:27;;;;;;;8.80;4.25;;;;;;;;;;3341281;42;20544;-57
2022/06/20 13:43:10;;;;;;;8.30;4.60;;;;;;;;;;3344254;42;20158;-59
2022/06/20 13:45:46;;;;;;;9.32;4.22;;;;;;;;;;3343597;42;20096;-58
2022/06/20 13:48:22;;;;;;;7.90;3.85;;;;;;;;;;3333990;42;20091;-59
2022/06/20 13:51:11;;;;;;;9.47;4.37;;;;;;;;;;3332669;42;20237;-59
2022/06/20 13:53:59;;;;;;;9.00;4.70;;;;;;;;;;3341052;42;20128;-59
2022/06/20 13:56:30;;;;;;;8.20;4.28;;;;;;;;;;3349653;42;20141;-60
2022/06/20 13:59:37;;;;;;;8.88;3.80;;;;;;;;;;3344385;42;20144;-59
2022/06/20 14:02:41;;;;;;;8.05;3.92;;;;;;;;;;3331505;42;20185;-58
2022/06/20 14:05:17;;;;;;;7.07;3.23;;;;;;;;;;3339898;42;20606;-58
2022/06/20 14:07:44;;;;;;;8.00;3.25;;;;;;;;;;3344537;42;20089;-60
2022/06/20 14:10:44;;;;;;;7.53;3.42;;;;;;;;;;3348761;42;20563;-58
2022/06/20 14:13:45;;;;;;;7.00;3.42;;;;;;;;;;3330437;42;20108;-58
2022/06/20 14:16:38;;;;;;;6.72;3.50;;;;;;;;;;3319646;43;20596;-56
2022/06/20 14:19:17;;;;;;;6.93;3.40;;;;;;;;;;3346645;42;20089;-58
2022/06/20 14:21:45;;;;;;;6.65;3.03;;;;;;;;;;3341685;42;20650;-59
2022/06/20 14:24:33;;;;;;;7.97;2.88;;;;;;;;;;3347209;42;20100;-58
2022/06/20 14:27:19;;;;;;;7.85;3.42;;;;;;;;;;3344148;42;20097;-58
2022/06/20 14:29:59;;;;;;;6.05;2.75;;;;;;;;;;3347123;42;20077;-57
2022/06/20 14:32:42;;;;;;;8.10;2.80;;;;;;;;;;3344083;42;20085;-59
2022/06/20 14:35:21;;;;;;;6.60;2.72;;;;;;;;;;3339149;42;20160;-59
2022/06/20 14:37:52;;;;;;;6.25;2.63;;;;;;;;;;3338074;42;20133;-58
2022/06/20 14:40:37;;;;;;;5.63;2.50;;;;;;;;;;3340168;42;20536;-58
2022/06/20 14:43:08;;;;;;;5.10;2.10;;;;;;;;;;3339028;42;20232;-58
2022/06/20 14:45:37;;;;;;;5.40;2.20;;;;;;;;;;3342794;42;20100;-58
2022/06/20 14:48:17;;;;;;;7.03;2.65;;;;;;;;;;3342268;42;20568;-58
2022/06/20 14:50:51;;;;;;;6.28;2.30;;;;;;;;;;3342153;42;20136;-56
2022/06/20 14:53:35;;;;;;;5.20;2.22;;;;;;;;;;3340465;42;20089;-59
2022/06/20 14:56:12;;;;;;;6.55;2.40;;;;;;;;;;3340751;42;20089;-59
2022/06/20 14:58:48;;;;;;;5.73;2.20;;;;;;;;;;3348959;42;20104;-60
2022/06/20 15:01:42;;;;;;;5.55;2.13;;;;;;;;;;3345649;42;20092;-59
2022/06/20 15:04:23;;;;;;;5.97;2.22;;;;;;;;;;3341610;42;20093;-57
2022/06/20 15:07:14;;;;;;;5.90;2.20;;;;;;;;;;3344032;42;20080;-59
2022/06/20 15:09:44;;;;;;;5.80;2.47;;;;;;;;;;3341666;42;20092;-59
2022/06/20 15:12:29;;;;;;;8.80;2.90;;;;;;;;;;3337766;42;20544;-56
2022/06/20 15:15:03;;;;;;;8.95;3.03;;;;;;;;;;3346246;42;20087;-60
2022/06/20 15:17:53;;;;;;;8.38;3.10;;;;;;;;;;3338532;42;20081;-54
2022/06/20 15:20:32;;;;;;;6.03;2.58;;;;;;;;;;3339963;42;20541;-55
2022/06/20 15:23:35;;;;;;;5.65;2.20;;;;;;;;;;3347131;42;20534;-57
2022/06/20 15:26:24;;;;;;;6.63;2.53;;;;;;;;;;3347756;42;20089;-56
2022/06/20 15:29:09;;;;;;;5.70;2.60;;;;;;;;;;3342839;42;20111;-57
2022/06/20 15:31:37;;;;;;;6.07;2.20;;;;;;;;;;3343739;42;20136;-58
2022/06/20 15:34:30;;;;;;;5.28;2.20;;;;;;;;;;3340181;42;20563;-56
2022/06/20 15:37:10;;;;;;;6.07;2.40;;;;;;;;;;3343663;42;20085;-55
2022/06/20 15:39:48;;;;;;;6.07;2.53;;;;;;;;;;3340955;42;20097;-55
2022/06/20 15:42:22;;;;;;;7.13;2.50;;;;;;;;;;3343851;42;20116;-54
2022/06/20 15:45:19;;;;;;;6.13;2.20;;;;;;;;;;3342342;42;20646;-55
2022/06/20 15:47:51;;;;;;;5.72;2.20;;;;;;;;;;3340024;42;20085;-55
2022/06/20 15:50:35;;;;;;;8.35;2.30;;;;;;;;;;3336662;42;20182;-57
2022/06/20 15:53:17;;;;;;;7.90;2.37;;;;;;;;;;3341186;42;20100;-55
2022/06/20 15:56:20;;;;;;;8.05;2.40;;;;;;;;;;3341391;42;20097;-54